sensor_id;sensor_type;location;lat;lon;timestamp;P1;durP1;ratioP1;P2;durP2;ratioP2
70588;SDS011;58152;49.202;18.744;2022-08-03T00:00:03;5.63;;;3.53;;
70588;SDS011;58152;49.202;18.744;2022-08-03T00:02:43;4.18;;;3.80;;
70588;SDS011;58152;49.202;18.744;2022-08-03T00:05:40;4.35;;;3.95;;
70588;SDS011;58152;49.202;18.744;2022-08-03T00:08:23;4.65;;;3.97;;
70588;SDS011;58152;49.202;18.744;2022-08-03T00:14:17;4.05;;;3.75;;
70588;SDS011;58152;49.202;18.744;2022-08-03T00:17:03;3.70;;;3.35;;
70588;SDS011;58152;49.202;18.744;2022-08-03T00:20:08;3.67;;;3.25;;
70588;SDS011;58152;49.202;18.744;2022-08-03T00:29:41;4.57;;;4.18;;
70588;SDS011;58152;49.202;18.744;2022-08-03T00:32:06;4.53;;;4.13;;
70588;SDS011;58152;49.202;18.744;2022-08-03T00:34:32;4.57;;;4.18;;
70588;SDS011;58152;49.202;18.744;2022-08-03T00:36:57;4.88;;;4.30;;
70588;SDS011;58152;49.202;18.744;2022-08-03T00:39:23;4.05;;;3.75;;
70588;SDS011;58152;49.202;18.744;2022-08-03T00:41:48;4.50;;;4.05;;
70588;SDS011;58152;49.202;18.744;2022-08-03T00:44:14;4.25;;;3.92;;
70588;SDS011;58152;49.202;18.744;2022-08-03T00:46:39;5.90;;;4.10;;
70588;SDS011;58152;49.202;18.744;2022-08-03T00:49:04;4.47;;;4.15;;
70588;SDS011;58152;49.202;18.744;2022-08-03T00:51:30;5.05;;;4.38;;
70588;SDS011;58152;49.202;18.744;2022-08-03T00:53:55;10.88;;;4.70;;
70588;SDS011;58152;49.202;18.744;2022-08-03T00:56:21;4.88;;;4.40;;
70588;SDS011;58152;49.202;18.744;2022-08-03T00:58:46;8.68;;;4.97;;
70588;SDS011;58152;49.202;18.744;2022-08-03T01:01:12;4.88;;;4.35;;
70588;SDS011;58152;49.202;18.744;2022-08-03T01:03:39;4.75;;;4.35;;
70588;SDS011;58152;49.202;18.744;2022-08-03T01:08:52;4.50;;;3.78;;
70588;SDS011;58152;49.202;18.744;2022-08-03T01:14:03;4.22;;;3.92;;
70588;SDS011;58152;49.202;18.744;2022-08-03T01:27:28;4.35;;;4.05;;
70588;SDS011;58152;49.202;18.744;2022-08-03T01:32:33;5.07;;;4.20;;
70588;SDS011;58152;49.202;18.744;2022-08-03T01:35:05;4.28;;;3.78;;
70588;SDS011;58152;49.202;18.744;2022-08-03T01:37:44;4.32;;;3.97;;
70588;SDS011;58152;49.202;18.744;2022-08-03T01:40:15;4.35;;;3.95;;
70588;SDS011;58152;49.202;18.744;2022-08-03T01:42:43;4.75;;;4.35;;
70588;SDS011;58152;49.202;18.744;2022-08-03T01:45:11;4.50;;;4.20;;
70588;SDS011;58152;49.202;18.744;2022-08-03T01:47:38;4.50;;;4.10;;
70588;SDS011;58152;49.202;18.744;2022-08-03T01:50:06;4.07;;;3.78;;
70588;SDS011;58152;49.202;18.744;2022-08-03T01:52:34;4.75;;;4.35;;
70588;SDS011;58152;49.202;18.744;2022-08-03T01:55:04;4.47;;;4.15;;
70588;SDS011;58152;49.202;18.744;2022-08-03T01:57:31;4.85;;;4.35;;
70588;SDS011;58152;49.202;18.744;2022-08-03T01:59:59;4.93;;;3.83;;
70588;SDS011;58152;49.202;18.744;2022-08-03T02:02:25;4.18;;;3.88;;
70588;SDS011;58152;49.202;18.744;2022-08-03T02:04:53;4.53;;;4.10;;
70588;SDS011;58152;49.202;18.744;2022-08-03T02:07:21;3.90;;;3.63;;
70588;SDS011;58152;49.202;18.744;2022-08-03T02:09:49;6.57;;;4.22;;
70588;SDS011;58152;49.202;18.744;2022-08-03T02:12:16;4.22;;;3.92;;
70588;SDS011;58152;49.202;18.744;2022-08-03T02:14:43;3.92;;;3.55;;
70588;SDS011;58152;49.202;18.744;2022-08-03T02:17:10;4.68;;;4.28;;
70588;SDS011;58152;49.202;18.744;2022-08-03T02:19:38;4.20;;;3.80;;
70588;SDS011;58152;49.202;18.744;2022-08-03T02:22:06;4.18;;;3.83;;
70588;SDS011;58152;49.202;18.744;2022-08-03T02:24:34;5.20;;;4.80;;
70588;SDS011;58152;49.202;18.744;2022-08-03T02:26:59;4.75;;;4.35;;
70588;SDS011;58152;49.202;18.744;2022-08-03T02:29:27;4.93;;;4.53;;
70588;SDS011;58152;49.202;18.744;2022-08-03T02:31:56;4.78;;;4.22;;
70588;SDS011;58152;49.202;18.744;2022-08-03T02:34:24;4.75;;;4.35;;
70588;SDS011;58152;49.202;18.744;2022-08-03T02:36:53;4.30;;;3.90;;
70588;SDS011;58152;49.202;18.744;2022-08-03T02:39:24;4.32;;;3.92;;
70588;SDS011;58152;49.202;18.744;2022-08-03T02:41:53;4.50;;;4.10;;
70588;SDS011;58152;49.202;18.744;2022-08-03T02:44:26;4.55;;;4.18;;
70588;SDS011;58152;49.202;18.744;2022-08-03T02:46:53;4.10;;;3.80;;
70588;SDS011;58152;49.202;18.744;2022-08-03T02:49:22;4.03;;;3.47;;
70588;SDS011;58152;49.202;18.744;2022-08-03T02:51:50;4.57;;;4.22;;
70588;SDS011;58152;49.202;18.744;2022-08-03T02:54:17;4.53;;;3.97;;
70588;SDS011;58152;49.202;18.744;2022-08-03T02:56:46;5.38;;;4.25;;
70588;SDS011;58152;49.202;18.744;2022-08-03T02:59:12;4.07;;;3.70;;
70588;SDS011;58152;49.202;18.744;2022-08-03T03:01:41;4.60;;;4.10;;
70588;SDS011;58152;49.202;18.744;2022-08-03T03:04:07;4.53;;;4.13;;
70588;SDS011;58152;49.202;18.744;2022-08-03T03:06:35;4.07;;;3.78;;
70588;SDS011;58152;49.202;18.744;2022-08-03T03:09:01;4.55;;;3.95;;
70588;SDS011;58152;49.202;18.744;2022-08-03T03:11:26;4.10;;;3.70;;
70588;SDS011;58152;49.202;18.744;2022-08-03T03:13:53;3.90;;;3.42;;
70588;SDS011;58152;49.202;18.744;2022-08-03T03:16:21;3.80;;;3.50;;
70588;SDS011;58152;49.202;18.744;2022-08-03T03:18:50;4.80;;;4.40;;
70588;SDS011;58152;49.202;18.744;2022-08-03T03:21:16;4.68;;;4.18;;
70588;SDS011;58152;49.202;18.744;2022-08-03T03:23:44;3.80;;;3.50;;
70588;SDS011;58152;49.202;18.744;2022-08-03T03:26:11;3.85;;;3.47;;
70588;SDS011;58152;49.202;18.744;2022-08-03T03:28:38;4.43;;;4.03;;
70588;SDS011;58152;49.202;18.744;2022-08-03T03:31:04;4.63;;;4.03;;
70588;SDS011;58152;49.202;18.744;2022-08-03T03:33:34;3.92;;;3.63;;
70588;SDS011;58152;49.202;18.744;2022-08-03T03:36:01;4.28;;;3.65;;
70588;SDS011;58152;49.202;18.744;2022-08-03T03:38:28;15.35;;;13.07;;
70588;SDS011;58152;49.202;18.744;2022-08-03T03:40:54;101.50;;;81.65;;
70588;SDS011;58152;49.202;18.744;2022-08-03T03:43:21;62.30;;;49.25;;
70588;SDS011;58152;49.202;18.744;2022-08-03T03:45:47;22.15;;;17.05;;
70588;SDS011;58152;49.202;18.744;2022-08-03T03:48:14;9.95;;;8.70;;
70588;SDS011;58152;49.202;18.744;2022-08-03T03:50:40;8.65;;;6.15;;
70588;SDS011;58152;49.202;18.744;2022-08-03T03:53:08;5.30;;;4.75;;
70588;SDS011;58152;49.202;18.744;2022-08-03T03:55:35;5.35;;;4.82;;
70588;SDS011;58152;49.202;18.744;2022-08-03T03:58:02;5.50;;;4.70;;
70588;SDS011;58152;49.202;18.744;2022-08-03T04:00:29;7.13;;;4.85;;
70588;SDS011;58152;49.202;18.744;2022-08-03T04:02:54;7.22;;;6.22;;
70588;SDS011;58152;49.202;18.744;2022-08-03T04:05:20;6.15;;;5.20;;
70588;SDS011;58152;49.202;18.744;2022-08-03T04:08:09;7.75;;;5.43;;
70588;SDS011;58152;49.202;18.744;2022-08-03T04:11:38;6.53;;;5.72;;
70588;SDS011;58152;49.202;18.744;2022-08-03T04:16:17;6.68;;;5.85;;
70588;SDS011;58152;49.202;18.744;2022-08-03T04:18:46;7.65;;;6.63;;
70588;SDS011;58152;49.202;18.744;2022-08-03T04:21:15;7.97;;;7.18;;
70588;SDS011;58152;49.202;18.744;2022-08-03T04:23:43;6.88;;;6.18;;
70588;SDS011;58152;49.202;18.744;2022-08-03T04:26:12;7.25;;;6.60;;
70588;SDS011;58152;49.202;18.744;2022-08-03T04:28:42;6.60;;;6.00;;
70588;SDS011;58152;49.202;18.744;2022-08-03T04:31:11;7.03;;;5.60;;
70588;SDS011;58152;49.202;18.744;2022-08-03T04:33:38;6.63;;;6.03;;
70588;SDS011;58152;49.202;18.744;2022-08-03T04:36:06;7.15;;;5.90;;
70588;SDS011;58152;49.202;18.744;2022-08-03T04:38:43;7.07;;;6.38;;
70588;SDS011;58152;49.202;18.744;2022-08-03T04:41:28;7.45;;;6.75;;
70588;SDS011;58152;49.202;18.744;2022-08-03T04:43:56;8.73;;;7.43;;
70588;SDS011;58152;49.202;18.744;2022-08-03T04:46:25;6.90;;;6.30;;
70588;SDS011;58152;49.202;18.744;2022-08-03T04:48:52;7.82;;;6.70;;
70588;SDS011;58152;49.202;18.744;2022-08-03T04:51:19;7.78;;;6.97;;
70588;SDS011;58152;49.202;18.744;2022-08-03T04:53:44;7.72;;;7.03;;
70588;SDS011;58152;49.202;18.744;2022-08-03T04:56:10;7.28;;;6.65;;
70588;SDS011;58152;49.202;18.744;2022-08-03T04:58:35;7.38;;;6.65;;
70588;SDS011;58152;49.202;18.744;2022-08-03T05:01:01;7.93;;;6.13;;
70588;SDS011;58152;49.202;18.744;2022-08-03T05:03:26;10.07;;;7.35;;
70588;SDS011;58152;49.202;18.744;2022-08-03T05:05:52;7.90;;;7.20;;
70588;SDS011;58152;49.202;18.744;2022-08-03T05:08:18;8.57;;;7.13;;
70588;SDS011;58152;49.202;18.744;2022-08-03T05:10:44;8.13;;;7.10;;
70588;SDS011;58152;49.202;18.744;2022-08-03T05:13:10;9.15;;;7.32;;
70588;SDS011;58152;49.202;18.744;2022-08-03T05:15:37;8.63;;;7.72;;
70588;SDS011;58152;49.202;18.744;2022-08-03T05:18:03;7.03;;;6.32;;
70588;SDS011;58152;49.202;18.744;2022-08-03T05:20:28;7.53;;;6.88;;
70588;SDS011;58152;49.202;18.744;2022-08-03T05:22:55;7.50;;;6.75;;
70588;SDS011;58152;49.202;18.744;2022-08-03T05:25:21;6.53;;;5.93;;
70588;SDS011;58152;49.202;18.744;2022-08-03T05:27:46;6.30;;;5.72;;
70588;SDS011;58152;49.202;18.744;2022-08-03T05:30:12;6.80;;;6.15;;
70588;SDS011;58152;49.202;18.744;2022-08-03T05:32:38;6.63;;;6.00;;
70588;SDS011;58152;49.202;18.744;2022-08-03T05:35:03;7.43;;;5.93;;
70588;SDS011;58152;49.202;18.744;2022-08-03T05:37:29;7.18;;;5.82;;
70588;SDS011;58152;49.202;18.744;2022-08-03T05:39:55;7.68;;;5.75;;
70588;SDS011;58152;49.202;18.744;2022-08-03T05:42:20;7.05;;;5.45;;
70588;SDS011;58152;49.202;18.744;2022-08-03T05:44:46;7.88;;;6.30;;
70588;SDS011;58152;49.202;18.744;2022-08-03T05:47:11;9.30;;;6.45;;
70588;SDS011;58152;49.202;18.744;2022-08-03T05:49:37;7.07;;;6.38;;
70588;SDS011;58152;49.202;18.744;2022-08-03T05:52:02;9.43;;;5.72;;
70588;SDS011;58152;49.202;18.744;2022-08-03T05:54:28;10.02;;;5.55;;
70588;SDS011;58152;49.202;18.744;2022-08-03T05:56:53;7.35;;;6.28;;
70588;SDS011;58152;49.202;18.744;2022-08-03T05:59:19;5.68;;;5.18;;
70588;SDS011;58152;49.202;18.744;2022-08-03T06:01:45;8.20;;;5.60;;
70588;SDS011;58152;49.202;18.744;2022-08-03T06:04:11;5.75;;;5.35;;
70588;SDS011;58152;49.202;18.744;2022-08-03T06:06:36;7.57;;;5.65;;
70588;SDS011;58152;49.202;18.744;2022-08-03T06:09:02;6.70;;;5.70;;
70588;SDS011;58152;49.202;18.744;2022-08-03T06:11:27;7.07;;;5.57;;
70588;SDS011;58152;49.202;18.744;2022-08-03T06:13:53;6.70;;;5.95;;
70588;SDS011;58152;49.202;18.744;2022-08-03T06:16:18;8.77;;;5.95;;
70588;SDS011;58152;49.202;18.744;2022-08-03T06:18:44;6.88;;;6.05;;
70588;SDS011;58152;49.202;18.744;2022-08-03T06:21:10;7.13;;;6.43;;
70588;SDS011;58152;49.202;18.744;2022-08-03T06:23:35;8.90;;;6.32;;
70588;SDS011;58152;49.202;18.744;2022-08-03T06:26:01;6.78;;;6.18;;
70588;SDS011;58152;49.202;18.744;2022-08-03T06:28:27;8.57;;;6.57;;
70588;SDS011;58152;49.202;18.744;2022-08-03T06:30:52;6.30;;;5.68;;
70588;SDS011;58152;49.202;18.744;2022-08-03T06:33:18;5.40;;;4.95;;
70588;SDS011;58152;49.202;18.744;2022-08-03T06:35:43;7.05;;;6.13;;
70588;SDS011;58152;49.202;18.744;2022-08-03T06:38:09;8.05;;;7.35;;
70588;SDS011;58152;49.202;18.744;2022-08-03T06:40:35;10.90;;;7.15;;
70588;SDS011;58152;49.202;18.744;2022-08-03T06:43:04;7.13;;;6.18;;
70588;SDS011;58152;49.202;18.744;2022-08-03T06:45:33;8.57;;;6.78;;
70588;SDS011;58152;49.202;18.744;2022-08-03T06:50:32;7.03;;;6.22;;
70588;SDS011;58152;49.202;18.744;2022-08-03T06:52:59;8.35;;;5.82;;
70588;SDS011;58152;49.202;18.744;2022-08-03T06:55:25;7.45;;;6.38;;
70588;SDS011;58152;49.202;18.744;2022-08-03T06:57:51;6.50;;;5.90;;
70588;SDS011;58152;49.202;18.744;2022-08-03T07:00:17;7.53;;;6.50;;
70588;SDS011;58152;49.202;18.744;2022-08-03T07:02:43;7.28;;;6.68;;
70588;SDS011;58152;49.202;18.744;2022-08-03T07:05:08;6.13;;;5.53;;
70588;SDS011;58152;49.202;18.744;2022-08-03T07:07:34;6.97;;;6.35;;
70588;SDS011;58152;49.202;18.744;2022-08-03T07:10:00;6.35;;;5.85;;
70588;SDS011;58152;49.202;18.744;2022-08-03T07:12:26;6.32;;;5.70;;
70588;SDS011;58152;49.202;18.744;2022-08-03T07:14:53;6.45;;;5.85;;
70588;SDS011;58152;49.202;18.744;2022-08-03T07:17:19;6.88;;;6.28;;
70588;SDS011;58152;49.202;18.744;2022-08-03T07:19:45;8.00;;;6.20;;
70588;SDS011;58152;49.202;18.744;2022-08-03T07:22:10;9.02;;;7.25;;
70588;SDS011;58152;49.202;18.744;2022-08-03T07:24:36;6.80;;;5.63;;
70588;SDS011;58152;49.202;18.744;2022-08-03T07:27:02;6.32;;;5.82;;
70588;SDS011;58152;49.202;18.744;2022-08-03T07:29:27;5.95;;;5.38;;
70588;SDS011;58152;49.202;18.744;2022-08-03T07:31:53;5.97;;;5.38;;
70588;SDS011;58152;49.202;18.744;2022-08-03T07:34:18;10.43;;;5.80;;
70588;SDS011;58152;49.202;18.744;2022-08-03T07:36:44;7.95;;;6.63;;
70588;SDS011;58152;49.202;18.744;2022-08-03T07:39:09;8.90;;;6.32;;
70588;SDS011;58152;49.202;18.744;2022-08-03T07:41:35;7.30;;;6.60;;
70588;SDS011;58152;49.202;18.744;2022-08-03T07:44:01;9.18;;;6.18;;
70588;SDS011;58152;49.202;18.744;2022-08-03T07:46:27;7.20;;;6.30;;
70588;SDS011;58152;49.202;18.744;2022-08-03T07:48:52;7.35;;;5.97;;
70588;SDS011;58152;49.202;18.744;2022-08-03T07:51:18;7.05;;;6.25;;
70588;SDS011;58152;49.202;18.744;2022-08-03T07:53:43;8.82;;;6.05;;
70588;SDS011;58152;49.202;18.744;2022-08-03T07:56:09;6.43;;;5.93;;
70588;SDS011;58152;49.202;18.744;2022-08-03T07:58:34;9.85;;;6.40;;
70588;SDS011;58152;49.202;18.744;2022-08-03T08:01:00;6.38;;;5.82;;
70588;SDS011;58152;49.202;18.744;2022-08-03T08:03:26;7.60;;;6.82;;
70588;SDS011;58152;49.202;18.744;2022-08-03T08:05:51;7.00;;;6.20;;
70588;SDS011;58152;49.202;18.744;2022-08-03T08:08:17;6.68;;;6.05;;
70588;SDS011;58152;49.202;18.744;2022-08-03T08:10:44;5.85;;;5.35;;
70588;SDS011;58152;49.202;18.744;2022-08-03T08:13:10;6.63;;;4.88;;
70588;SDS011;58152;49.202;18.744;2022-08-03T08:15:35;5.07;;;4.68;;
70588;SDS011;58152;49.202;18.744;2022-08-03T08:18:01;6.78;;;4.13;;
70588;SDS011;58152;49.202;18.744;2022-08-03T08:20:28;5.30;;;3.60;;
70588;SDS011;58152;49.202;18.744;2022-08-03T08:22:56;3.80;;;3.50;;
70588;SDS011;58152;49.202;18.744;2022-08-03T08:25:26;4.20;;;3.80;;
70588;SDS011;58152;49.202;18.744;2022-08-03T08:27:52;3.72;;;3.33;;
70588;SDS011;58152;49.202;18.744;2022-08-03T08:30:18;5.63;;;3.55;;
70588;SDS011;58152;49.202;18.744;2022-08-03T08:32:46;3.58;;;3.28;;
70588;SDS011;58152;49.202;18.744;2022-08-03T08:35:12;3.20;;;3.00;;
70588;SDS011;58152;49.202;18.744;2022-08-03T08:37:41;3.42;;;3.13;;
70588;SDS011;58152;49.202;18.744;2022-08-03T08:40:08;6.50;;;3.38;;
70588;SDS011;58152;49.202;18.744;2022-08-03T08:42:38;3.47;;;3.28;;
70588;SDS011;58152;49.202;18.744;2022-08-03T08:45:07;3.53;;;3.20;;
70588;SDS011;58152;49.202;18.744;2022-08-03T08:47:36;4.07;;;3.70;;
70588;SDS011;58152;49.202;18.744;2022-08-03T08:50:04;3.47;;;3.17;;
70588;SDS011;58152;49.202;18.744;2022-08-03T08:52:34;3.03;;;2.83;;
70588;SDS011;58152;49.202;18.744;2022-08-03T08:55:02;3.35;;;3.15;;
70588;SDS011;58152;49.202;18.744;2022-08-03T08:57:34;3.85;;;3.55;;
70588;SDS011;58152;49.202;18.744;2022-08-03T09:00:07;2.97;;;2.78;;
70588;SDS011;58152;49.202;18.744;2022-08-03T09:02:37;3.70;;;3.40;;
70588;SDS011;58152;49.202;18.744;2022-08-03T09:05:03;4.00;;;3.50;;
70588;SDS011;58152;49.202;18.744;2022-08-03T09:07:29;3.50;;;3.20;;
70588;SDS011;58152;49.202;18.744;2022-08-03T09:09:55;3.67;;;3.38;;
70588;SDS011;58152;49.202;18.744;2022-08-03T09:12:21;3.80;;;3.42;;
70588;SDS011;58152;49.202;18.744;2022-08-03T09:14:46;5.28;;;3.38;;
70588;SDS011;58152;49.202;18.744;2022-08-03T09:17:13;3.10;;;2.90;;
70588;SDS011;58152;49.202;18.744;2022-08-03T09:19:38;4.30;;;3.22;;
70588;SDS011;58152;49.202;18.744;2022-08-03T09:27:24;2.45;;;2.25;;
70588;SDS011;58152;49.202;18.744;2022-08-03T09:29:52;2.97;;;2.78;;
70588;SDS011;58152;49.202;18.744;2022-08-03T09:32:27;2.45;;;1.92;;
70588;SDS011;58152;49.202;18.744;2022-08-03T09:34:53;1.63;;;1.50;;
70588;SDS011;58152;49.202;18.744;2022-08-03T09:37:28;2.15;;;2.00;;
70588;SDS011;58152;49.202;18.744;2022-08-03T09:39:58;1.95;;;1.85;;
70588;SDS011;58152;49.202;18.744;2022-08-03T09:42:24;2.20;;;2.10;;
70588;SDS011;58152;49.202;18.744;2022-08-03T09:44:51;2.10;;;2.00;;
70588;SDS011;58152;49.202;18.744;2022-08-03T09:47:27;3.08;;;2.33;;
70588;SDS011;58152;49.202;18.744;2022-08-03T09:50:01;4.35;;;1.95;;
70588;SDS011;58152;49.202;18.744;2022-08-03T09:52:36;2.13;;;1.90;;
70588;SDS011;58152;49.202;18.744;2022-08-03T09:55:14;2.00;;;1.90;;
70588;SDS011;58152;49.202;18.744;2022-08-03T10:01:04;1.63;;;1.52;;
70588;SDS011;58152;49.202;18.744;2022-08-03T10:03:34;1.85;;;1.75;;
70588;SDS011;58152;49.202;18.744;2022-08-03T10:06:16;1.92;;;1.80;;
70588;SDS011;58152;49.202;18.744;2022-08-03T10:09:15;1.80;;;1.70;;
70588;SDS011;58152;49.202;18.744;2022-08-03T10:11:46;2.13;;;1.83;;
70588;SDS011;58152;49.202;18.744;2022-08-03T10:14:14;1.52;;;1.42;;
70588;SDS011;58152;49.202;18.744;2022-08-03T10:16:56;1.52;;;1.42;;
70588;SDS011;58152;49.202;18.744;2022-08-03T10:19:43;1.73;;;1.30;;
70588;SDS011;58152;49.202;18.744;2022-08-03T10:23:01;1.75;;;1.65;;
70588;SDS011;58152;49.202;18.744;2022-08-03T10:25:41;2.17;;;1.80;;
70588;SDS011;58152;49.202;18.744;2022-08-03T10:29:09;1.52;;;1.35;;
70588;SDS011;58152;49.202;18.744;2022-08-03T10:31:57;1.88;;;1.77;;
70588;SDS011;58152;49.202;18.744;2022-08-03T10:34:33;1.35;;;1.25;;
70588;SDS011;58152;49.202;18.744;2022-08-03T10:37:07;1.60;;;1.50;;
70588;SDS011;58152;49.202;18.744;2022-08-03T10:39:56;2.95;;;1.83;;
70588;SDS011;58152;49.202;18.744;2022-08-03T10:42:24;1.70;;;1.60;;
70588;SDS011;58152;49.202;18.744;2022-08-03T10:44:55;2.00;;;1.55;;
70588;SDS011;58152;49.202;18.744;2022-08-03T10:54:46;1.45;;;1.35;;
70588;SDS011;58152;49.202;18.744;2022-08-03T10:57:01;1.85;;;1.70;;
70588;SDS011;58152;49.202;18.744;2022-08-03T11:03:12;1.50;;;1.23;;
70588;SDS011;58152;49.202;18.744;2022-08-03T11:05:44;1.80;;;1.70;;
70588;SDS011;58152;49.202;18.744;2022-08-03T11:08:23;2.05;;;1.80;;
70588;SDS011;58152;49.202;18.744;2022-08-03T11:10:53;1.40;;;1.30;;
70588;SDS011;58152;49.202;18.744;2022-08-03T11:13:21;1.58;;;1.48;;
70588;SDS011;58152;49.202;18.744;2022-08-03T11:15:56;2.05;;;1.80;;
70588;SDS011;58152;49.202;18.744;2022-08-03T11:18:29;1.70;;;1.60;;
70588;SDS011;58152;49.202;18.744;2022-08-03T11:23:46;2.00;;;1.80;;
70588;SDS011;58152;49.202;18.744;2022-08-03T11:26:17;1.70;;;1.60;;
70588;SDS011;58152;49.202;18.744;2022-08-03T11:28:46;1.90;;;1.65;;
70588;SDS011;58152;49.202;18.744;2022-08-03T11:34:06;1.70;;;1.58;;
70588;SDS011;58152;49.202;18.744;2022-08-03T11:39:56;2.40;;;1.50;;
70588;SDS011;58152;49.202;18.744;2022-08-03T11:44:59;1.50;;;1.40;;
70588;SDS011;58152;49.202;18.744;2022-08-03T11:47:35;1.92;;;1.50;;
70588;SDS011;58152;49.202;18.744;2022-08-03T11:50:05;1.42;;;1.33;;
70588;SDS011;58152;49.202;18.744;2022-08-03T11:52:45;2.17;;;1.60;;
70588;SDS011;58152;49.202;18.744;2022-08-03T11:55:18;2.05;;;1.30;;
70588;SDS011;58152;49.202;18.744;2022-08-03T11:58:27;1.48;;;1.38;;
70588;SDS011;58152;49.202;18.744;2022-08-03T12:01:09;1.60;;;1.50;;
70588;SDS011;58152;49.202;18.744;2022-08-03T12:03:46;2.08;;;1.60;;
70588;SDS011;58152;49.202;18.744;2022-08-03T12:06:19;2.38;;;1.80;;
70588;SDS011;58152;49.202;18.744;2022-08-03T12:08:49;1.50;;;1.40;;
70588;SDS011;58152;49.202;18.744;2022-08-03T12:11:15;1.55;;;1.35;;
70588;SDS011;58152;49.202;18.744;2022-08-03T12:13:53;1.92;;;1.48;;
70588;SDS011;58152;49.202;18.744;2022-08-03T12:16:30;1.60;;;1.30;;
70588;SDS011;58152;49.202;18.744;2022-08-03T12:21:28;2.22;;;2.00;;
70588;SDS011;58152;49.202;18.744;2022-08-03T12:24:39;1.50;;;1.40;;
70588;SDS011;58152;49.202;18.744;2022-08-03T12:27:13;2.15;;;1.48;;
70588;SDS011;58152;49.202;18.744;2022-08-03T12:29:50;1.58;;;1.48;;
70588;SDS011;58152;49.202;18.744;2022-08-03T12:32:28;1.70;;;1.45;;
70588;SDS011;58152;49.202;18.744;2022-08-03T12:34:57;2.88;;;1.40;;
70588;SDS011;58152;49.202;18.744;2022-08-03T12:37:38;1.30;;;1.20;;
70588;SDS011;58152;49.202;18.744;2022-08-03T12:40:12;1.88;;;1.48;;
70588;SDS011;58152;49.202;18.744;2022-08-03T12:42:51;1.50;;;1.40;;
70588;SDS011;58152;49.202;18.744;2022-08-03T12:45:35;1.63;;;1.08;;
70588;SDS011;58152;49.202;18.744;2022-08-03T12:48:07;1.38;;;1.08;;
70588;SDS011;58152;49.202;18.744;2022-08-03T12:51:10;1.77;;;1.00;;
70588;SDS011;58152;49.202;18.744;2022-08-03T12:53:40;2.22;;;0.90;;
70588;SDS011;58152;49.202;18.744;2022-08-03T12:56:09;1.35;;;1.10;;
70588;SDS011;58152;49.202;18.744;2022-08-03T12:58:38;2.38;;;1.25;;
70588;SDS011;58152;49.202;18.744;2022-08-03T13:01:23;0.90;;;0.90;;
70588;SDS011;58152;49.202;18.744;2022-08-03T13:09:55;1.02;;;1.02;;
70588;SDS011;58152;49.202;18.744;2022-08-03T13:12:23;1.20;;;1.10;;
70588;SDS011;58152;49.202;18.744;2022-08-03T13:15:00;1.20;;;1.10;;
70588;SDS011;58152;49.202;18.744;2022-08-03T13:17:38;1.45;;;1.10;;
70588;SDS011;58152;49.202;18.744;2022-08-03T13:20:07;1.05;;;1.00;;
70588;SDS011;58152;49.202;18.744;2022-08-03T13:22:39;1.20;;;1.10;;
70588;SDS011;58152;49.202;18.744;2022-08-03T13:25:07;1.50;;;1.40;;
70588;SDS011;58152;49.202;18.744;2022-08-03T13:27:39;1.90;;;1.10;;
70588;SDS011;58152;49.202;18.744;2022-08-03T13:30:22;1.45;;;1.17;;
70588;SDS011;58152;49.202;18.744;2022-08-03T13:33:07;1.25;;;1.15;;
70588;SDS011;58152;49.202;18.744;2022-08-03T13:41:29;1.33;;;1.17;;
70588;SDS011;58152;49.202;18.744;2022-08-03T13:45:07;1.10;;;0.90;;
70588;SDS011;58152;49.202;18.744;2022-08-03T13:47:55;1.38;;;1.02;;
70588;SDS011;58152;49.202;18.744;2022-08-03T13:50:30;1.33;;;0.90;;
70588;SDS011;58152;49.202;18.744;2022-08-03T13:53:04;1.63;;;1.13;;
70588;SDS011;58152;49.202;18.744;2022-08-03T13:55:30;0.88;;;0.88;;
70588;SDS011;58152;49.202;18.744;2022-08-03T13:57:59;1.20;;;1.10;;
70588;SDS011;58152;49.202;18.744;2022-08-03T14:00:52;1.10;;;1.05;;
70588;SDS011;58152;49.202;18.744;2022-08-03T14:05:59;0.80;;;0.75;;
70588;SDS011;58152;49.202;18.744;2022-08-03T14:08:25;1.05;;;0.95;;
70588;SDS011;58152;49.202;18.744;2022-08-03T14:10:51;1.63;;;1.02;;
70588;SDS011;58152;49.202;18.744;2022-08-03T14:13:19;1.13;;;1.02;;
70588;SDS011;58152;49.202;18.744;2022-08-03T14:15:46;1.38;;;1.00;;
70588;SDS011;58152;49.202;18.744;2022-08-03T14:18:14;1.10;;;1.10;;
70588;SDS011;58152;49.202;18.744;2022-08-03T14:20:45;1.10;;;1.00;;
70588;SDS011;58152;49.202;18.744;2022-08-03T14:23:24;1.08;;;0.98;;
70588;SDS011;58152;49.202;18.744;2022-08-03T14:28:45;0.85;;;0.85;;
70588;SDS011;58152;49.202;18.744;2022-08-03T14:31:11;2.25;;;1.02;;
70588;SDS011;58152;49.202;18.744;2022-08-03T14:33:37;2.30;;;1.30;;
70588;SDS011;58152;49.202;18.744;2022-08-03T14:36:03;0.80;;;0.80;;
70588;SDS011;58152;49.202;18.744;2022-08-03T14:38:29;0.85;;;0.85;;
70588;SDS011;58152;49.202;18.744;2022-08-03T14:41:04;0.98;;;0.90;;
70588;SDS011;58152;49.202;18.744;2022-08-03T14:44:02;1.63;;;1.10;;
70588;SDS011;58152;49.202;18.744;2022-08-03T14:46:47;1.52;;;0.90;;
70588;SDS011;58152;49.202;18.744;2022-08-03T14:49:23;0.80;;;0.80;;
70588;SDS011;58152;49.202;18.744;2022-08-03T14:52:07;1.50;;;1.20;;
70588;SDS011;58152;49.202;18.744;2022-08-03T14:54:36;1.45;;;0.90;;
70588;SDS011;58152;49.202;18.744;2022-08-03T14:57:01;1.38;;;1.27;;
70588;SDS011;58152;49.202;18.744;2022-08-03T14:59:27;1.20;;;1.00;;
70588;SDS011;58152;49.202;18.744;2022-08-03T15:02:09;1.08;;;1.00;;
70588;SDS011;58152;49.202;18.744;2022-08-03T15:05:00;1.77;;;1.17;;
70588;SDS011;58152;49.202;18.744;2022-08-03T15:07:34;1.85;;;1.15;;
70588;SDS011;58152;49.202;18.744;2022-08-03T15:10:11;1.05;;;0.95;;
70588;SDS011;58152;49.202;18.744;2022-08-03T15:20:26;1.27;;;1.00;;
70588;SDS011;58152;49.202;18.744;2022-08-03T15:23:39;0.98;;;0.80;;
70588;SDS011;58152;49.202;18.744;2022-08-03T15:26:21;1.60;;;1.17;;
70588;SDS011;58152;49.202;18.744;2022-08-03T15:29:12;1.35;;;1.25;;
70588;SDS011;58152;49.202;18.744;2022-08-03T15:41:53;1.25;;;1.00;;
70588;SDS011;58152;49.202;18.744;2022-08-03T15:47:44;1.35;;;1.15;;
70588;SDS011;58152;49.202;18.744;2022-08-03T15:50:34;1.77;;;1.02;;
70588;SDS011;58152;49.202;18.744;2022-08-03T15:53:55;0.90;;;0.80;;
70588;SDS011;58152;49.202;18.744;2022-08-03T15:57:00;1.05;;;0.98;;
70588;SDS011;58152;49.202;18.744;2022-08-03T16:00:13;1.50;;;1.40;;
70588;SDS011;58152;49.202;18.744;2022-08-03T16:06:29;1.50;;;1.25;;
70588;SDS011;58152;49.202;18.744;2022-08-03T16:09:21;2.45;;;0.80;;
70588;SDS011;58152;49.202;18.744;2022-08-03T16:15:38;1.20;;;1.10;;
70588;SDS011;58152;49.202;18.744;2022-08-03T16:18:29;1.20;;;1.10;;
70588;SDS011;58152;49.202;18.744;2022-08-03T16:21:27;1.70;;;1.40;;
70588;SDS011;58152;49.202;18.744;2022-08-03T16:27:51;1.20;;;1.02;;
70588;SDS011;58152;49.202;18.744;2022-08-03T16:30:44;1.60;;;1.25;;
70588;SDS011;58152;49.202;18.744;2022-08-03T16:33:38;1.45;;;1.35;;
70588;SDS011;58152;49.202;18.744;2022-08-03T16:36:31;1.38;;;1.20;;
70588;SDS011;58152;49.202;18.744;2022-08-03T16:46:10;1.20;;;1.10;;
70588;SDS011;58152;49.202;18.744;2022-08-03T16:48:56;1.40;;;1.30;;
70588;SDS011;58152;49.202;18.744;2022-08-03T16:52:02;1.42;;;1.20;;
70588;SDS011;58152;49.202;18.744;2022-08-03T16:54:36;1.38;;;1.27;;
70588;SDS011;58152;49.202;18.744;2022-08-03T16:57:23;1.42;;;1.30;;
70588;SDS011;58152;49.202;18.744;2022-08-03T16:59:58;1.55;;;1.15;;
70588;SDS011;58152;49.202;18.744;2022-08-03T17:02:54;0.93;;;0.93;;
70588;SDS011;58152;49.202;18.744;2022-08-03T17:05:33;2.13;;;1.33;;